Time;durP1;ratioP1;P1;durP2;ratioP2;P2;SDS_P1;SDS_P2;PMS_P1;PMS_P2;Temp;Humidity;BMP_temperature;BMP_pressure;BME280_temperature;BME280_humidity;BME280_pressure;Samples;Min_cycle;Max_cycle;Signal;HPM_P1;HPM_P2
2022/02/22 00:01:22;;;;;;;36.47;6.00;;;7.50;80.00;;;;;;5020423;28;20182;-91
2022/02/22 00:03:48;;;;;;;20.90;5.23;;;7.40;80.40;;;;;;4997503;28;20202;-88
2022/02/22 00:06:13;;;;;;;31.20;5.70;;;7.40;80.30;;;;;;5001565;28;20732;-89
2022/02/22 00:08:39;;;;;;;24.07;4.67;;;7.40;80.10;;;;;;5017524;28;20201;-89
2022/02/22 00:11:05;;;;;;;17.13;4.60;;;7.50;80.00;;;;;;5035054;28;20405;-90
2022/02/22 00:13:31;;;;;;;18.17;4.80;;;7.50;79.80;;;;;;5017119;28;20205;-87
2022/02/22 00:16:00;;;;;;;31.83;5.37;;;7.50;79.70;;;;;;5005163;28;20651;-88
2022/02/22 00:18:27;;;;;;;19.08;4.60;;;7.50;79.80;;;;;;4997974;28;20197;-88
2022/02/22 00:20:53;;;;;;;30.35;4.53;;;7.50;79.80;;;;;;4998306;28;20206;-88
2022/02/22 00:23:19;;;;;;;27.25;5.28;;;7.40;79.80;;;;;;5010959;28;20197;-89
2022/02/22 00:25:45;;;;;;;23.73;3.70;;;7.40;79.90;;;;;;5024188;28;20212;-88
2022/02/22 00:28:14;;;;;;;27.00;4.40;;;7.40;80.00;;;;;;5016606;28;20181;-89
2022/02/22 00:30:40;;;;;;;21.15;4.93;;;7.40;80.00;;;;;;5017487;28;20173;-89
2022/02/22 00:33:06;;;;;;;22.20;4.63;;;7.40;79.90;;;;;;5012840;28;20200;-89
2022/02/22 00:35:31;;;;;;;29.47;4.70;;;7.40;79.80;;;;;;4997558;28;20417;-88
2022/02/22 00:37:57;;;;;;;19.10;3.93;;;7.40;79.80;;;;;;5004541;28;20182;-89
2022/02/22 00:40:23;;;;;;;33.23;5.97;;;7.30;80.00;;;;;;5003344;28;20175;-88
2022/02/22 00:42:48;;;;;;;30.33;4.70;;;7.30;80.00;;;;;;4998497;28;20237;-89
2022/02/22 00:45:14;;;;;;;24.57;5.00;;;7.30;80.10;;;;;;4996972;28;20670;-88
2022/02/22 00:47:40;;;;;;;17.27;4.77;;;7.20;79.70;;;;;;4997275;28;20210;-88
2022/02/22 00:50:07;;;;;;;23.33;4.90;;;7.30;79.80;;;;;;4997192;28;20189;-88
2022/02/22 00:52:32;;;;;;;11.02;3.80;;;7.40;79.70;;;;;;5004322;28;20448;-88
2022/02/22 00:54:58;;;;;;;40.20;4.60;;;7.40;80.30;;;;;;5008605;28;20733;-88
2022/02/22 00:57:24;;;;;;;19.90;3.60;;;7.30;79.60;;;;;;4998886;28;20210;-89
2022/02/22 00:59:50;;;;;;;31.20;5.30;;;7.40;79.60;;;;;;4999001;28;20626;-89
2022/02/22 01:02:15;;;;;;;32.20;4.70;;;7.30;79.60;;;;;;5009566;28;20202;-88
2022/02/22 01:04:41;;;;;;;24.57;4.50;;;7.40;79.70;;;;;;5031242;28;20432;-88
2022/02/22 01:07:07;;;;;;;22.33;3.40;;;7.30;79.80;;;;;;5017723;28;20533;-87
2022/02/22 01:09:33;;;;;;;15.73;4.60;;;7.20;79.70;;;;;;5012560;28;20194;-88
2022/02/22 01:11:58;;;;;;;22.50;4.90;;;7.20;79.60;;;;;;5006590;28;20546;-89
2022/02/22 01:14:24;;;;;;;27.17;5.17;;;7.20;79.70;;;;;;5020052;28;20175;-89
2022/02/22 01:16:50;;;;;;;20.40;4.90;;;7.30;79.60;;;;;;5022743;28;20436;-89
2022/02/22 01:19:16;;;;;;;19.03;3.47;;;7.30;79.50;;;;;;5008374;28;20597;-87
2022/02/22 01:21:41;;;;;;;21.92;4.43;;;7.30;79.40;;;;;;5008767;28;20291;-88
2022/02/22 01:24:08;;;;;;;20.53;4.10;;;7.30;79.20;;;;;;5006792;28;20202;-88
2022/02/22 01:26:34;;;;;;;20.55;3.90;;;7.30;79.30;;;;;;5001693;28;20740;-88
2022/02/22 01:29:00;;;;;;;27.23;3.88;;;7.30;79.30;;;;;;4998146;28;20189;-88
2022/02/22 01:31:27;;;;;;;24.13;5.23;;;7.30;79.40;;;;;;4998569;28;20234;-87
2022/02/22 01:33:57;;;;;;;23.55;4.85;;;7.40;79.30;;;;;;5006483;28;20445;-85
2022/02/22 01:36:23;;;;;;;28.58;5.20;;;7.30;79.20;;;;;;5019489;28;20174;-85
2022/02/22 01:38:51;;;;;;;30.30;4.45;;;7.40;79.10;;;;;;4997419;28;20183;-89
2022/02/22 01:41:21;;;;;;;23.35;4.20;;;7.40;79.20;;;;;;5011801;28;20185;-89
2022/02/22 01:43:46;;;;;;;31.35;4.68;;;7.40;79.30;;;;;;5029088;28;20236;-88
2022/02/22 01:46:13;;;;;;;15.80;3.43;;;7.30;79.50;;;;;;5009162;28;20198;-85
2022/02/22 01:48:38;;;;;;;12.88;4.28;;;7.30;79.80;;;;;;5021994;28;20647;-88
2022/02/22 01:51:04;;;;;;;22.27;4.80;;;7.20;80.00;;;;;;5000829;28;20183;-89
2022/02/22 01:53:32;;;;;;;19.83;4.83;;;7.20;80.00;;;;;;5000470;28;20969;-88
2022/02/22 01:56:01;;;;;;;28.33;5.07;;;7.20;80.20;;;;;;5000372;28;20413;-89
2022/02/22 01:58:28;;;;;;;12.50;3.83;;;7.20;80.20;;;;;;5000294;28;20186;-88
2022/02/22 02:00:54;;;;;;;20.33;4.13;;;7.20;80.30;;;;;;5000042;28;20722;-89
2022/02/22 02:03:20;;;;;;;25.17;4.55;;;7.20;80.40;;;;;;4999856;28;20211;-89
2022/02/22 02:05:46;;;;;;;13.67;4.37;;;7.20;80.60;;;;;;5017748;28;20182;-89
2022/02/22 02:08:12;;;;;;;31.13;5.20;;;7.20;80.60;;;;;;5017696;28;20414;-87
2022/02/22 02:10:38;;;;;;;25.25;4.47;;;7.20;80.60;;;;;;5001184;28;20651;-87
2022/02/22 02:13:04;;;;;;;27.40;4.63;;;7.20;80.80;;;;;;5001322;28;20226;-87
2022/02/22 02:15:30;;;;;;;16.70;3.00;;;7.20;80.70;;;;;;4999193;28;20422;-87
2022/02/22 02:17:56;;;;;;;17.15;3.88;;;7.20;80.80;;;;;;5000211;28;20437;-86
2022/02/22 02:20:22;;;;;;;28.93;4.33;;;7.20;80.90;;;;;;4999613;28;20179;-87
2022/02/22 02:22:48;;;;;;;20.45;4.25;;;7.20;81.00;;;;;;5017564;28;20694;-86
2022/02/22 02:25:14;;;;;;;21.88;4.75;;;7.10;81.10;;;;;;5002838;28;20699;-86
2022/02/22 02:27:40;;;;;;;28.83;6.40;;;7.10;81.20;;;;;;5017395;28;20217;-87
2022/02/22 02:30:09;;;;;;;18.73;3.88;;;7.00;81.40;;;;;;5018976;28;20218;-87
2022/02/22 02:32:35;;;;;;;26.52;4.80;;;7.10;81.60;;;;;;4999854;28;20205;-87
2022/02/22 02:35:02;;;;;;;18.65;3.42;;;6.90;81.60;;;;;;5002901;28;20638;-87
2022/02/22 02:37:27;;;;;;;16.77;3.67;;;6.90;81.70;;;;;;5019909;28;20192;-87
2022/02/22 02:39:53;;;;;;;26.47;4.20;;;6.90;81.90;;;;;;5004881;28;20206;-87
2022/02/22 02:42:19;;;;;;;29.33;4.70;;;6.80;81.90;;;;;;5002978;28;20206;-87
2022/02/22 02:44:47;;;;;;;17.00;3.42;;;6.90;82.10;;;;;;5005396;28;20316;-87
2022/02/22 02:47:14;;;;;;;22.38;3.92;;;6.80;81.90;;;;;;5024578;28;20214;-87
2022/02/22 02:49:40;;;;;;;14.23;3.70;;;6.80;82.00;;;;;;5007521;28;20174;-87
2022/02/22 02:52:07;;;;;;;28.55;3.67;;;6.80;82.10;;;;;;5002661;28;20266;-85
2022/02/22 02:54:33;;;;;;;16.63;3.47;;;6.80;82.20;;;;;;4998505;28;20182;-86
2022/02/22 02:57:00;;;;;;;15.02;3.78;;;6.70;82.30;;;;;;5018107;28;20217;-87
2022/02/22 02:59:26;;;;;;;35.88;4.72;;;6.80;82.30;;;;;;5000380;28;20193;-86
2022/02/22 03:01:51;;;;;;;14.13;3.63;;;6.80;82.30;;;;;;5000550;28;20182;-87
2022/02/22 03:04:18;;;;;;;28.13;4.40;;;6.80;82.30;;;;;;5017576;28;20194;-87
2022/02/22 03:06:44;;;;;;;25.67;4.35;;;6.80;82.30;;;;;;4999818;28;20843;-86
2022/02/22 03:09:09;;;;;;;22.60;6.10;;;6.80;82.20;;;;;;5000289;28;20179;-86
2022/02/22 03:11:36;;;;;;;32.53;5.50;;;6.80;82.10;;;;;;5000202;28;20178;-86
2022/02/22 03:14:02;;;;;;;15.20;3.65;;;6.70;82.00;;;;;;4998443;28;20437;-86
2022/02/22 03:16:28;;;;;;;21.77;3.60;;;6.70;82.10;;;;;;5014751;28;20186;-87
2022/02/22 03:18:53;;;;;;;17.50;3.70;;;6.70;82.00;;;;;;4997266;28;20460;-87
2022/02/22 03:21:19;;;;;;;22.50;4.33;;;6.70;82.00;;;;;;4997534;28;20421;-86
2022/02/22 03:23:45;;;;;;;15.00;3.63;;;6.80;81.90;;;;;;5014809;28;20321;-86
2022/02/22 03:26:11;;;;;;;22.40;3.50;;;6.80;81.90;;;;;;5015308;28;20203;-86
2022/02/22 03:28:37;;;;;;;13.80;3.37;;;6.90;82.00;;;;;;5015145;28;20273;-86
2022/02/22 03:31:04;;;;;;;40.22;5.13;;;7.00;81.50;;;;;;4997500;28;20942;-86
2022/02/22 03:33:33;;;;;;;19.33;4.43;;;6.80;81.10;;;;;;4996725;28;20232;-87
2022/02/22 03:36:01;;;;;;;14.48;3.15;;;6.70;81.40;;;;;;5003442;28;20679;-87
2022/02/22 03:38:27;;;;;;;25.77;4.30;;;6.60;81.40;;;;;;4993867;28;20190;-86
2022/02/22 03:40:53;;;;;;;21.02;3.65;;;6.60;81.60;;;;;;4994745;28;20179;-86
2022/02/22 03:43:19;;;;;;;21.13;4.80;;;6.60;81.60;;;;;;4999017;28;20564;-86
2022/02/22 03:45:45;;;;;;;13.57;3.80;;;6.80;81.70;;;;;;5002949;28;20185;-86
2022/02/22 03:48:11;;;;;;;15.85;3.65;;;6.90;81.30;;;;;;5014077;28;20685;-86
2022/02/22 03:50:37;;;;;;;12.50;3.23;;;6.80;81.20;;;;;;4996803;28;20277;-86
2022/02/22 03:53:03;;;;;;;19.27;4.10;;;6.90;81.20;;;;;;5009057;28;20198;-86
2022/02/22 03:55:29;;;;;;;20.05;4.15;;;7.00;80.80;;;;;;5013390;28;20193;-87
2022/02/22 03:57:55;;;;;;;15.93;4.03;;;7.10;80.40;;;;;;5016610;28;20202;-87
2022/02/22 04:00:24;;;;;;;22.23;5.03;;;7.10;80.00;;;;;;5000192;28;20436;-86
2022/02/22 04:02:50;;;;;;;17.70;4.68;;;7.10;79.70;;;;;;4995720;28;20524;-86
2022/02/22 04:05:19;;;;;;;21.40;5.28;;;7.10;79.60;;;;;;4995972;28;20210;-86
2022/02/22 04:07:44;;;;;;;17.67;4.63;;;7.00;79.60;;;;;;4995663;28;20206;-86
2022/02/22 04:10:11;;;;;;;15.50;5.53;;;7.10;79.60;;;;;;5016378;28;20185;-86
2022/02/22 04:12:38;;;;;;;19.02;4.97;;;6.90;79.60;;;;;;5016303;28;20471;-87
2022/02/22 04:15:06;;;;;;;35.90;5.78;;;6.90;80.00;;;;;;5009657;28;20178;-86
2022/02/22 04:17:31;;;;;;;18.48;4.55;;;6.90;80.10;;;;;;4999388;28;20186;-86
2022/02/22 04:19:58;;;;;;;17.50;3.90;;;6.90;79.90;;;;;;4999997;28;20236;-86
2022/02/22 04:22:24;;;;;;;18.88;5.00;;;6.90;80.10;;;;;;5017465;28;20206;-86
2022/02/22 04:24:49;;;;;;;23.50;5.90;;;6.80;80.40;;;;;;5014540;28;20586;-86
2022/02/22 04:27:15;;;;;;;26.33;4.47;;;6.70;80.70;;;;;;4996363;28;21004;-86
2022/02/22 04:29:41;;;;;;;15.30;4.90;;;6.60;80.90;;;;;;4996339;28;20449;-87
2022/02/22 04:32:07;;;;;;;21.83;5.53;;;6.60;81.10;;;;;;4996047;28;20422;-87
2022/02/22 04:34:34;;;;;;;13.40;3.33;;;6.50;81.50;;;;;;4996409;28;20214;-86
2022/02/22 04:37:00;;;;;;;9.48;4.47;;;6.50;81.70;;;;;;4996474;28;20194;-86
2022/02/22 04:39:25;;;;;;;19.20;4.05;;;6.60;81.70;;;;;;4996001;28;20174;-86
2022/02/22 04:41:51;;;;;;;12.47;5.93;;;6.50;81.90;;;;;;4996272;28;20186;-86
2022/02/22 04:44:18;;;;;;;16.83;4.53;;;6.50;82.00;;;;;;4994955;28;20300;-87
2022/02/22 04:46:44;;;;;;;16.77;5.82;;;6.50;82.90;;;;;;4995591;28;20670;-86
2022/02/22 04:49:10;;;;;;;19.20;5.85;;;6.50;82.30;;;;;;4996676;28;20182;-87
2022/02/22 04:51:37;;;;;;;19.40;6.60;;;6.50;82.50;;;;;;4996006;28;20187;-86
2022/02/22 04:54:03;;;;;;;13.15;4.60;;;6.60;82.50;;;;;;4996178;28;20704;-86
2022/02/22 04:56:29;;;;;;;17.35;4.75;;;6.50;82.40;;;;;;4996158;28;20182;-86
2022/02/22 04:58:55;;;;;;;11.93;4.30;;;6.50;82.50;;;;;;5013865;28;20599;-86
2022/02/22 05:01:22;;;;;;;14.35;4.60;;;6.50;82.50;;;;;;4996513;28;20174;-86
2022/02/22 05:03:48;;;;;;;30.63;5.43;;;6.50;82.70;;;;;;5003094;28;20203;-86
2022/02/22 05:06:14;;;;;;;17.80;4.27;;;6.50;82.70;;;;;;5016489;28;20183;-86
2022/02/22 05:08:39;;;;;;;13.15;4.78;;;6.70;82.50;;;;;;5002752;28;20427;-86
2022/02/22 05:11:06;;;;;;;15.77;4.27;;;6.70;82.40;;;;;;5015903;28;20626;-86
2022/02/22 05:13:32;;;;;;;10.88;4.32;;;6.60;82.20;;;;;;5014894;28;20213;-86
2022/02/22 05:15:57;;;;;;;12.10;4.17;;;6.50;82.20;;;;;;5000819;28;20249;-86
2022/02/22 05:18:23;;;;;;;14.37;3.90;;;6.50;82.40;;;;;;5022549;28;21076;-86
2022/02/22 05:20:55;;;;;;;11.95;3.25;;;6.60;83.10;;;;;;5001312;28;20429;-86
2022/02/22 05:23:26;;;;;;;14.57;3.90;;;6.70;82.30;;;;;;4999496;28;20199;-86
2022/02/22 05:25:53;;;;;;;16.50;4.07;;;6.60;82.00;;;;;;4999349;28;20175;-86
2022/02/22 05:28:22;;;;;;;15.55;3.22;;;6.70;81.90;;;;;;4999628;28;20185;-87
2022/02/22 05:30:49;;;;;;;39.45;4.20;;;6.60;81.80;;;;;;4998928;28;20614;-87
2022/02/22 05:33:16;;;;;;;12.27;3.75;;;6.60;81.70;;;;;;5016267;28;20270;-87
2022/02/22 05:35:44;;;;;;;15.82;3.28;;;6.60;82.00;;;;;;4999212;28;20175;-87
2022/02/22 05:38:10;;;;;;;20.17;4.10;;;6.60;82.20;;;;;;4998961;28;20178;-87
2022/02/22 05:40:36;;;;;;;18.10;4.43;;;6.50;82.50;;;;;;4999549;28;20202;-87
2022/02/22 05:43:02;;;;;;;29.97;5.57;;;6.30;82.90;;;;;;4999691;28;20225;-87
2022/02/22 05:45:27;;;;;;;8.77;3.13;;;6.40;83.30;;;;;;4983569;28;20764;-87
2022/02/22 05:47:53;;;;;;;19.67;3.80;;;6.30;83.50;;;;;;5000037;28;20503;-87
2022/02/22 05:50:19;;;;;;;13.70;4.13;;;6.30;83.90;;;;;;4999657;28;20178;-87
2022/02/22 05:52:44;;;;;;;11.30;3.80;;;6.20;84.00;;;;;;4999156;28;20195;-87
2022/02/22 05:55:10;;;;;;;27.30;5.20;;;6.10;84.40;;;;;;5017599;28;20542;-87
2022/02/22 05:57:38;;;;;;;17.40;4.30;;;6.20;84.60;;;;;;5016716;28;20178;-88
2022/02/22 06:00:05;;;;;;;13.70;4.50;;;6.20;84.70;;;;;;4998770;28;20429;-87
2022/02/22 06:02:31;;;;;;;8.40;4.00;;;6.20;85.00;;;;;;5015926;28;20575;-87
2022/02/22 06:04:57;;;;;;;22.43;4.10;;;6.50;84.90;;;;;;4998459;28;20334;-87
2022/02/22 06:07:23;;;;;;;27.97;4.77;;;6.50;84.50;;;;;;4998447;28;20285;-88
2022/02/22 06:09:48;;;;;;;17.10;4.60;;;6.40;84.30;;;;;;4998474;28;20171;-88
2022/02/22 06:12:14;;;;;;;20.80;4.33;;;6.50;84.50;;;;;;5016153;28;20406;-87
2022/02/22 06:14:40;;;;;;;13.37;4.20;;;6.40;84.50;;;;;;4998362;28;20175;-87
2022/02/22 06:17:06;;;;;;;17.73;4.57;;;6.30;84.70;;;;;;4999045;28;20432;-87
2022/02/22 06:19:34;;;;;;;17.40;4.90;;;6.40;84.80;;;;;;5016235;28;20984;-87
2022/02/22 06:22:00;;;;;;;22.05;4.55;;;6.40;84.80;;;;;;4998005;28;21071;-87
2022/02/22 06:24:25;;;;;;;23.67;4.53;;;6.40;84.80;;;;;;4997433;28;20261;-87
2022/02/22 06:26:51;;;;;;;21.57;4.73;;;6.40;85.00;;;;;;5013833;28;20475;-88
2022/02/22 06:29:17;;;;;;;21.20;5.40;;;6.40;85.10;;;;;;4998487;28;20171;-87
2022/02/22 06:31:43;;;;;;;26.77;5.80;;;6.40;85.10;;;;;;5002637;28;20176;-88
2022/02/22 06:34:09;;;;;;;18.58;5.53;;;6.50;85.20;;;;;;5005560;28;20444;-88
2022/02/22 06:36:35;;;;;;;21.90;5.73;;;6.70;84.90;;;;;;5025186;28;20182;-87
2022/02/22 06:39:01;;;;;;;24.60;5.78;;;6.70;84.60;;;;;;4999497;28;20225;-87
2022/02/22 06:41:28;;;;;;;17.55;5.25;;;6.90;84.30;;;;;;4997906;28;20724;-86
2022/02/22 06:43:53;;;;;;;27.75;6.68;;;6.90;84.00;;;;;;4997722;28;20304;-87
2022/02/22 06:46:19;;;;;;;28.30;8.10;;;6.80;83.80;;;;;;4998345;28;20258;-87
2022/02/22 06:48:45;;;;;;;22.63;7.70;;;6.80;83.90;;;;;;5016223;28;20664;-87
2022/02/22 06:51:11;;;;;;;23.67;6.90;;;6.80;84.10;;;;;;4998886;28;20429;-87
2022/02/22 06:53:37;;;;;;;16.30;5.50;;;6.90;84.20;;;;;;4997488;28;20214;-87
2022/02/22 06:56:03;;;;;;;21.60;6.10;;;6.90;84.00;;;;;;4997588;28;20437;-87
2022/02/22 06:58:29;;;;;;;26.58;6.28;;;6.90;84.00;;;;;;4998656;28;20441;-87
2022/02/22 07:00:56;;;;;;;20.80;5.23;;;7.00;83.90;;;;;;4997897;28;20186;-87
2022/02/22 07:03:22;;;;;;;31.13;7.30;;;7.20;83.40;;;;;;5015519;28;20206;-87
2022/02/22 07:05:48;;;;;;;20.92;6.82;;;7.10;83.10;;;;;;4998798;28;20218;-87
2022/02/22 07:08:14;;;;;;;20.55;6.78;;;7.10;83.00;;;;;;5022032;28;20171;-88
2022/02/22 07:10:40;;;;;;;23.52;5.15;;;7.10;83.10;;;;;;5000861;28;20186;-87
2022/02/22 07:13:06;;;;;;;27.93;5.10;;;7.20;82.90;;;;;;5004501;28;20197;-87
2022/02/22 07:15:32;;;;;;;29.42;7.28;;;7.10;82.80;;;;;;5023493;28;20453;-88
2022/02/22 07:18:03;;;;;;;20.10;6.53;;;7.10;82.70;;;;;;5001467;28;20209;-87
2022/02/22 07:20:29;;;;;;;20.13;5.35;;;7.30;82.70;;;;;;5001489;28;20167;-88
2022/02/22 07:22:57;;;;;;;21.35;5.30;;;7.30;82.90;;;;;;5001915;28;20694;-87
2022/02/22 07:25:24;;;;;;;19.35;6.15;;;7.40;82.00;;;;;;4999714;28;20178;-88
2022/02/22 07:27:51;;;;;;;15.10;4.53;;;7.60;81.40;;;;;;5002584;28;20768;-88
2022/02/22 07:30:19;;;;;;;22.45;5.55;;;7.70;81.00;;;;;;5002821;28;20556;-88
2022/02/22 07:32:45;;;;;;;18.05;5.50;;;7.80;80.40;;;;;;4999157;28;20206;-88
2022/02/22 07:35:12;;;;;;;19.40;5.28;;;7.80;80.20;;;;;;4998873;28;20553;-87
2022/02/22 07:37:39;;;;;;;13.23;4.00;;;7.80;79.90;;;;;;4998376;28;20741;-88
2022/02/22 07:40:06;;;;;;;18.45;4.82;;;7.80;79.60;;;;;;4998234;28;20647;-88
2022/02/22 07:42:32;;;;;;;28.35;5.30;;;7.90;79.30;;;;;;5014968;28;20702;-88
2022/02/22 07:44:58;;;;;;;19.73;5.00;;;8.10;79.10;;;;;;4997456;28;20190;-88
2022/02/22 07:47:23;;;;;;;18.20;4.87;;;8.00;78.80;;;;;;4998607;28;20468;-87
2022/02/22 07:49:49;;;;;;;13.80;4.70;;;8.00;78.90;;;;;;5016369;28;20174;-87
2022/02/22 07:52:15;;;;;;;18.53;4.57;;;8.00;78.90;;;;;;4998253;28;20186;-88
2022/02/22 07:54:41;;;;;;;26.50;4.67;;;8.10;78.50;;;;;;5000492;28;20186;-88
2022/02/22 07:57:06;;;;;;;12.20;4.95;;;8.20;78.10;;;;;;5001044;28;20277;-88
2022/02/22 07:59:32;;;;;;;18.13;4.43;;;8.20;77.90;;;;;;5001349;28;20190;-87
2022/02/22 08:01:58;;;;;;;25.40;6.60;;;8.20;77.80;;;;;;4998408;28;20425;-88
2022/02/22 08:04:27;;;;;;;28.93;7.20;;;8.40;77.60;;;;;;4998580;28;20207;-88
2022/02/22 08:06:57;;;;;;;21.42;5.15;;;8.50;77.40;;;;;;4997794;28;20202;-88
2022/02/22 08:09:24;;;;;;;15.85;3.85;;;8.60;77.10;;;;;;4998044;28;20578;-88
2022/02/22 08:11:50;;;;;;;15.65;4.03;;;8.70;76.90;;;;;;4997640;28;20185;-88
2022/02/22 08:14:17;;;;;;;17.15;5.20;;;8.50;76.50;;;;;;4996498;28;20209;-88
2022/02/22 08:16:43;;;;;;;27.00;5.93;;;8.60;76.70;;;;;;5015325;28;20174;-88
2022/02/22 08:19:10;;;;;;;24.75;6.28;;;8.80;77.40;;;;;;4998667;28;20615;-87
2022/02/22 08:21:35;;;;;;;21.00;5.35;;;8.60;76.20;;;;;;5015934;28;20179;-88
2022/02/22 08:24:01;;;;;;;21.07;5.27;;;8.60;76.30;;;;;;4996255;28;20635;-88
2022/02/22 08:26:27;;;;;;;16.42;4.57;;;8.70;76.50;;;;;;4997259;28;20209;-87
2022/02/22 08:28:52;;;;;;;16.73;4.43;;;8.90;76.40;;;;;;4997712;28;20182;-87
2022/02/22 08:31:18;;;;;;;29.70;4.17;;;8.90;76.20;;;;;;4998051;28;20264;-88
2022/02/22 08:33:44;;;;;;;26.47;4.50;;;8.90;76.10;;;;;;4998029;28;20690;-88
2022/02/22 08:36:12;;;;;;;22.35;4.40;;;8.90;76.00;;;;;;5000398;28;20224;-87
2022/02/22 08:38:38;;;;;;;20.73;5.43;;;8.90;75.80;;;;;;5005261;28;20250;-88
2022/02/22 08:41:05;;;;;;;27.67;4.75;;;9.00;75.80;;;;;;5004769;28;20185;-88
2022/02/22 08:43:32;;;;;;;19.65;5.88;;;9.00;75.80;;;;;;5017047;28;20301;-88
2022/02/22 08:45:58;;;;;;;23.52;5.35;;;8.90;75.90;;;;;;5015865;28;20194;-87
2022/02/22 08:48:24;;;;;;;16.23;5.60;;;8.90;76.20;;;;;;5001603;28;20182;-87
2022/02/22 08:50:50;;;;;;;21.43;4.20;;;8.90;76.30;;;;;;5019660;28;20421;-87
2022/02/22 08:53:17;;;;;;;16.55;4.85;;;8.90;76.30;;;;;;5001991;28;20198;-88
2022/02/22 08:55:43;;;;;;;19.45;5.30;;;9.10;76.30;;;;;;5019157;28;20173;-88
2022/02/22 08:58:08;;;;;;;11.23;5.38;;;9.00;76.10;;;;;;5001060;28;20221;-87
2022/02/22 09:00:36;;;;;;;22.50;6.50;;;9.10;76.30;;;;;;5018679;28;20178;-88
2022/02/22 09:03:03;;;;;;;22.70;5.00;;;9.30;76.00;;;;;;5000817;28;20285;-88
2022/02/22 09:05:30;;;;;;;14.90;3.67;;;9.20;76.00;;;;;;5017768;28;20531;-88
2022/02/22 09:07:56;;;;;;;34.15;5.45;;;9.40;75.70;;;;;;5019148;28;20293;-88
2022/02/22 09:10:27;;;;;;;16.98;4.30;;;9.40;75.50;;;;;;5001059;28;20591;-88
2022/02/22 09:12:54;;;;;;;19.45;5.18;;;9.60;75.90;;;;;;4999927;28;20195;-88
2022/02/22 09:15:21;;;;;;;26.27;6.95;;;9.70;75.40;;;;;;5000946;28;20190;-87
2022/02/22 09:17:47;;;;;;;17.25;5.90;;;9.80;74.80;;;;;;5005375;28;20210;-88
2022/02/22 09:20:15;;;;;;;21.63;5.60;;;9.70;74.30;;;;;;5009585;28;20178;-88
2022/02/22 09:22:41;;;;;;;27.02;4.50;;;9.50;74.50;;;;;;5004646;28;20221;-88
2022/02/22 09:25:09;;;;;;;27.27;8.23;;;9.50;74.90;;;;;;5001690;28;20655;-87
2022/02/22 09:27:35;;;;;;;31.83;5.28;;;9.10;75.40;;;;;;5018230;28;20468;-88
2022/02/22 09:30:01;;;;;;;30.77;6.22;;;8.80;76.30;;;;;;5000176;28;20179;-88
2022/02/22 09:32:27;;;;;;;27.03;7.23;;;8.90;77.40;;;;;;5000739;28;20201;-88
2022/02/22 09:34:53;;;;;;;27.50;5.80;;;9.00;77.60;;;;;;5018506;28;20496;-88
2022/02/22 09:37:19;;;;;;;19.93;5.83;;;9.00;77.70;;;;;;4985823;28;20214;-88
2022/02/22 09:39:45;;;;;;;24.70;6.00;;;9.30;77.90;;;;;;5001406;28;20500;-88
2022/02/22 09:42:10;;;;;;;19.27;5.73;;;9.60;77.70;;;;;;5001999;28;20445;-88
2022/02/22 09:44:38;;;;;;;30.90;6.90;;;9.80;77.30;;;;;;5003692;28;20436;-88
2022/02/22 09:47:05;;;;;;;28.10;6.90;;;10.00;76.70;;;;;;4999469;28;20623;-88
2022/02/22 09:49:31;;;;;;;37.15;7.75;;;10.10;75.70;;;;;;4999588;28;20229;-88
2022/02/22 09:51:58;;;;;;;30.87;8.20;;;10.20;75.30;;;;;;4999571;28;20175;-88
2022/02/22 09:54:25;;;;;;;37.05;6.88;;;10.20;75.40;;;;;;4999670;28;20421;-87
2022/02/22 09:56:51;;;;;;;38.72;6.88;;;10.20;75.40;;;;;;5000344;28;20186;-88
2022/02/22 09:59:18;;;;;;;47.85;8.15;;;10.40;75.40;;;;;;5004971;28;20187;-88
2022/02/22 10:01:48;;;;;;;20.58;6.43;;;10.40;75.30;;;;;;5000967;28;20221;-88
2022/02/22 10:04:14;;;;;;;39.30;7.22;;;10.30;75.50;;;;;;5007571;28;20274;-88
2022/02/22 10:06:40;;;;;;;28.73;6.63;;;10.40;76.10;;;;;;5024014;28;20318;-88
2022/02/22 10:09:09;;;;;;;35.53;8.70;;;10.50;76.30;;;;;;5017977;28;20202;-88
2022/02/22 10:11:53;;;;;;;29.83;8.10;;;10.60;76.40;;;;;;5000474;28;20183;-88
2022/02/22 10:14:29;;;;;;;34.30;7.10;;;10.70;76.30;;;;;;4998952;28;20337;-88
2022/02/22 10:16:56;;;;;;;29.05;7.85;;;10.50;76.70;;;;;;4999689;28;20185;-88
2022/02/22 10:19:25;;;;;;;29.85;8.30;;;10.40;77.60;;;;;;5019309;28;20181;-88
2022/02/22 10:21:54;;;;;;;42.42;8.60;;;10.20;78.60;;;;;;5000719;28;20189;-88
2022/02/22 10:24:21;;;;;;;33.35;7.53;;;10.10;79.50;;;;;;5015752;28;20260;-88
2022/02/22 10:26:47;;;;;;;40.28;9.07;;;9.90;80.60;;;;;;4982823;28;20249;-88
2022/02/22 10:29:20;;;;;;;33.77;8.93;;;9.90;81.40;;;;;;5017231;28;20642;-89
2022/02/22 10:31:47;;;;;;;36.88;9.30;;;9.90;82.00;;;;;;4999617;28;20416;-88
2022/02/22 10:34:14;;;;;;;33.13;9.30;;;9.90;82.70;;;;;;5016967;28;20206;-88
2022/02/22 10:36:42;;;;;;;28.00;7.53;;;10.00;83.30;;;;;;5000380;28;20179;-88
2022/02/22 10:39:11;;;;;;;47.70;7.57;;;9.90;83.70;;;;;;4999535;28;20183;-88
2022/02/22 10:41:42;;;;;;;37.40;8.65;;;9.90;84.00;;;;;;5005093;28;20177;-89
2022/02/22 10:44:10;;;;;;;34.47;7.65;;;9.80;84.10;;;;;;5009958;28;20308;-88
2022/02/22 10:46:49;;;;;;;25.92;6.95;;;9.70;84.60;;;;;;5021909;28;20201;-88
2022/02/22 10:49:18;;;;;;;41.25;8.80;;;9.70;85.00;;;;;;5001619;28;20205;-88
2022/02/22 10:51:51;;;;;;;54.80;8.35;;;9.80;85.40;;;;;;5019143;28;20243;-88
2022/02/22 10:54:25;;;;;;;36.85;8.73;;;9.90;85.60;;;;;;5019774;28;20205;-88
2022/02/22 10:56:52;;;;;;;43.03;8.25;;;10.00;85.70;;;;;;5019869;28;20180;-88
2022/02/22 10:59:19;;;;;;;38.35;8.77;;;10.20;85.80;;;;;;5005648;28;20186;-88
2022/02/22 11:01:45;;;;;;;27.45;7.35;;;10.20;85.50;;;;;;5017070;28;20245;-88
2022/02/22 11:04:11;;;;;;;37.03;8.63;;;10.40;85.10;;;;;;5016791;28;20202;-88
2022/02/22 11:06:38;;;;;;;20.20;6.82;;;10.40;84.40;;;;;;4999758;28;20206;-88
2022/02/22 11:09:07;;;;;;;42.72;9.18;;;10.50;84.00;;;;;;4999033;28;20174;-88
2022/02/22 11:11:43;;;;;;;32.75;7.18;;;10.60;83.80;;;;;;4982651;28;20178;-88
2022/02/22 11:14:11;;;;;;;23.10;6.60;;;10.70;83.70;;;;;;4997868;28;20642;-89
2022/02/22 11:16:51;;;;;;;33.97;8.20;;;10.80;83.20;;;;;;5000277;28;20237;-88
2022/02/22 11:19:27;;;;;;;32.65;8.00;;;11.00;82.90;;;;;;5002265;28;20185;-89
2022/02/22 11:21:55;;;;;;;28.52;8.75;;;11.10;82.40;;;;;;5005680;28;20184;-89
2022/02/22 11:24:22;;;;;;;28.25;7.95;;;11.10;81.90;;;;;;4998871;28;20198;-89
2022/02/22 11:26:54;;;;;;;29.88;7.97;;;11.10;81.50;;;;;;4998652;28;20214;-89
2022/02/22 11:29:21;;;;;;;19.23;6.40;;;10.80;81.30;;;;;;4999012;28;20166;-88
2022/02/22 11:32:01;;;;;;;21.83;6.80;;;10.80;81.80;;;;;;4998425;28;20179;-89
2022/02/22 11:34:39;;;;;;;24.90;6.18;;;10.70;82.30;;;;;;4999181;28;20658;-89
2022/02/22 11:37:11;;;;;;;22.60;6.78;;;10.70;82.50;;;;;;4999202;28;20233;-89
2022/02/22 11:39:51;;;;;;;34.00;7.35;;;10.70;82.40;;;;;;4998633;28;20282;-89
2022/02/22 11:42:31;;;;;;;36.58;8.20;;;10.70;82.40;;;;;;4998605;28;20190;-89
2022/02/22 11:45:24;;;;;;;20.90;6.45;;;10.60;82.80;;;;;;5030806;28;20182;-89
2022/02/22 11:48:23;;;;;;;25.40;6.00;;;10.80;83.00;;;;;;4999945;28;20270;-89
2022/02/22 11:50:58;;;;;;;27.73;7.25;;;10.80;82.80;;;;;;5000922;28;20213;-89
2022/02/22 11:53:29;;;;;;;24.38;6.90;;;10.90;82.50;;;;;;4997729;28;20571;-89
2022/02/22 11:55:57;;;;;;;20.40;6.00;;;11.00;82.30;;;;;;5016708;28;20189;-89
2022/02/22 11:58:25;;;;;;;21.23;7.05;;;11.10;82.20;;;;;;4998533;28;20186;-89
2022/02/22 12:01:00;;;;;;;32.88;7.60;;;11.10;82.20;;;;;;5019801;28;20171;-89
2022/02/22 12:03:27;;;;;;;19.50;6.35;;;11.30;81.90;;;;;;5004357;28;20197;-88
2022/02/22 12:05:54;;;;;;;18.90;5.93;;;11.30;81.80;;;;;;5002159;28;20646;-88
2022/02/22 12:08:22;;;;;;;28.13;7.90;;;11.30;81.40;;;;;;5002539;28;20261;-88
2022/02/22 12:10:57;;;;;;;36.97;6.13;;;11.40;81.30;;;;;;5000056;28;20182;-89
2022/02/22 12:13:47;;;;;;;17.95;6.32;;;11.30;81.10;;;;;;5019470;28;20627;-88
2022/02/22 12:16:20;;;;;;;21.55;6.97;;;11.40;81.40;;;;;;5014940;28;20190;-89
2022/02/22 12:18:52;;;;;;;35.28;9.25;;;11.50;81.40;;;;;;4996716;28;20180;-88
2022/02/22 12:21:37;;;;;;;18.67;6.57;;;11.50;81.30;;;;;;4998141;28;20193;-89
2022/02/22 12:24:04;;;;;;;14.32;6.53;;;11.40;81.20;;;;;;4996928;28;20197;-88
2022/02/22 12:26:30;;;;;;;21.67;8.32;;;11.40;81.30;;;;;;5016068;28;20336;-89
2022/02/22 12:29:08;;;;;;;16.90;6.60;;;11.40;81.40;;;;;;5015818;28;20178;-88
2022/02/22 12:31:40;;;;;;;23.75;8.02;;;11.50;81.70;;;;;;4999557;28;20410;-88
2022/02/22 12:34:09;;;;;;;21.42;7.95;;;11.50;81.70;;;;;;5014732;28;20226;-88
2022/02/22 12:36:43;;;;;;;21.17;6.72;;;11.60;81.60;;;;;;4998051;28;20206;-88
2022/02/22 12:39:12;;;;;;;15.82;6.40;;;11.60;81.70;;;;;;4997914;28;20244;-88
2022/02/22 12:41:40;;;;;;;21.10;8.18;;;11.70;81.30;;;;;;4998620;28;20241;-88
2022/02/22 12:44:11;;;;;;;17.77;7.15;;;11.70;81.30;;;;;;5001274;28;20214;-88
2022/02/22 12:46:38;;;;;;;15.85;6.97;;;11.70;81.10;;;;;;4998230;28;20780;-88